sensor_id;sensor_type;location;lat;lon;timestamp;pressure;altitude;pressure_sealevel;temperature;humidity
73501;BME280;61721;42.206;25.320;2023-12-14T00:01:19;98791.69;;;4.89;73.60
73501;BME280;61721;42.206;25.320;2023-12-14T00:03:46;98801.72;;;4.67;74.33
73501;BME280;61721;42.206;25.320;2023-12-14T00:06:14;98796.97;;;5.17;72.98
73501;BME280;61721;42.206;25.320;2023-12-14T00:08:42;98796.53;;;5.20;73.13
73501;BME280;61721;42.206;25.320;2023-12-14T00:11:11;98797.84;;;5.50;71.37
73501;BME280;61721;42.206;25.320;2023-12-14T00:13:38;98803.47;;;5.55;71.17
73501;BME280;61721;42.206;25.320;2023-12-14T00:16:06;98792.41;;;5.31;71.55
73501;BME280;61721;42.206;25.320;2023-12-14T00:18:43;98790.28;;;5.00;72.43
73501;BME280;61721;42.206;25.320;2023-12-14T00:21:10;98790.97;;;4.74;73.32
73501;BME280;61721;42.206;25.320;2023-12-14T00:23:38;98794.78;;;4.93;73.68
73501;BME280;61721;42.206;25.320;2023-12-14T00:26:05;98804.06;;;5.44;71.55
73501;BME280;61721;42.206;25.320;2023-12-14T00:28:33;98791.13;;;5.07;71.71
73501;BME280;61721;42.206;25.320;2023-12-14T00:31:00;98771.84;;;4.62;73.30
73501;BME280;61721;42.206;25.320;2023-12-14T00:33:28;98774.78;;;4.67;73.77
73501;BME280;61721;42.206;25.320;2023-12-14T00:35:56;98794.28;;;4.69;73.09
73501;BME280;61721;42.206;25.320;2023-12-14T00:38:24;98801.72;;;4.67;73.13
73501;BME280;61721;42.206;25.320;2023-12-14T00:40:51;98809.38;;;5.11;72.06
73501;BME280;61721;42.206;25.320;2023-12-14T00:43:19;98814.34;;;4.04;74.82
73501;BME280;61721;42.206;25.320;2023-12-14T00:45:46;98816.84;;;4.34;75.07
73501;BME280;61721;42.206;25.320;2023-12-14T00:48:13;98812.59;;;4.80;73.59
73501;BME280;61721;42.206;25.320;2023-12-14T00:50:41;98796.69;;;4.51;73.93
73501;BME280;61721;42.206;25.320;2023-12-14T00:53:10;98790.00;;;4.47;74.55
73501;BME280;61721;42.206;25.320;2023-12-14T00:55:38;98793.53;;;4.89;72.96
73501;BME280;61721;42.206;25.320;2023-12-14T00:58:05;98785.38;;;4.75;73.04
73501;BME280;61721;42.206;25.320;2023-12-14T01:00:33;98795.22;;;4.90;73.00
73501;BME280;61721;42.206;25.320;2023-12-14T01:03:00;98779.31;;;4.60;73.11
73501;BME280;61721;42.206;25.320;2023-12-14T01:05:28;98767.72;;;4.66;73.07
73501;BME280;61721;42.206;25.320;2023-12-14T01:07:55;98782.69;;;4.69;73.11
73501;BME280;61721;42.206;25.320;2023-12-14T01:10:25;98787.53;;;4.52;72.85
73501;BME280;61721;42.206;25.320;2023-12-14T01:12:52;98776.88;;;4.31;74.44
73501;BME280;61721;42.206;25.320;2023-12-14T01:15:19;98773.31;;;4.65;73.18
73501;BME280;61721;42.206;25.320;2023-12-14T01:17:47;98764.38;;;4.58;73.12
73501;BME280;61721;42.206;25.320;2023-12-14T01:20:14;98777.22;;;4.56;73.54
73501;BME280;61721;42.206;25.320;2023-12-14T01:22:41;98778.59;;;4.10;74.57
73501;BME280;61721;42.206;25.320;2023-12-14T01:25:09;98774.31;;;3.95;75.85
73501;BME280;61721;42.206;25.320;2023-12-14T01:27:37;98767.03;;;4.17;75.01
73501;BME280;61721;42.206;25.320;2023-12-14T01:30:06;98747.19;;;3.90;75.29
73501;BME280;61721;42.206;25.320;2023-12-14T01:32:34;98731.09;;;3.96;75.50
73501;BME280;61721;42.206;25.320;2023-12-14T01:35:01;98710.44;;;4.03;75.38
73501;BME280;61721;42.206;25.320;2023-12-14T01:37:29;98723.19;;;4.23;74.94
73501;BME280;61721;42.206;25.320;2023-12-14T01:39:56;98723.28;;;4.01;75.84
73501;BME280;61721;42.206;25.320;2023-12-14T01:42:24;98741.84;;;3.96;75.36
73501;BME280;61721;42.206;25.320;2023-12-14T01:44:53;98748.00;;;3.84;76.23
73501;BME280;61721;42.206;25.320;2023-12-14T01:47:21;98733.81;;;4.85;73.76
73501;BME280;61721;42.206;25.320;2023-12-14T01:49:48;98743.94;;;4.29;73.82
73501;BME280;61721;42.206;25.320;2023-12-14T01:52:16;98746.34;;;3.89;75.67
73501;BME280;61721;42.206;25.320;2023-12-14T01:54:43;98756.50;;;3.66;76.61
73501;BME280;61721;42.206;25.320;2023-12-14T01:57:10;98751.34;;;3.64;76.73
73501;BME280;61721;42.206;25.320;2023-12-14T01:59:38;98747.47;;;3.46;76.99
73501;BME280;61721;42.206;25.320;2023-12-14T02:02:07;98748.50;;;3.45;77.17
73501;BME280;61721;42.206;25.320;2023-12-14T02:04:34;98742.69;;;3.69;77.05
73501;BME280;61721;42.206;25.320;2023-12-14T02:07:03;98741.88;;;4.31;74.98
73501;BME280;61721;42.206;25.320;2023-12-14T02:09:31;98740.69;;;4.40;74.67
73501;BME280;61721;42.206;25.320;2023-12-14T02:11:58;98747.22;;;4.65;73.69
73501;BME280;61721;42.206;25.320;2023-12-14T02:14:26;98740.28;;;4.97;72.01
73501;BME280;61721;42.206;25.320;2023-12-14T02:16:54;98735.69;;;4.37;73.53
73501;BME280;61721;42.206;25.320;2023-12-14T02:19:23;98738.53;;;4.29;73.90
73501;BME280;61721;42.206;25.320;2023-12-14T02:21:50;98741.06;;;4.37;74.04
73501;BME280;61721;42.206;25.320;2023-12-14T02:24:19;98740.22;;;4.30;74.50
73501;BME280;61721;42.206;25.320;2023-12-14T02:26:46;98733.19;;;4.35;73.93
73501;BME280;61721;42.206;25.320;2023-12-14T02:29:21;98730.53;;;4.07;75.04
73501;BME280;61721;42.206;25.320;2023-12-14T02:31:48;98731.88;;;4.25;75.08
73501;BME280;61721;42.206;25.320;2023-12-14T02:34:16;98739.03;;;4.45;73.52
73501;BME280;61721;42.206;25.320;2023-12-14T02:36:44;98748.03;;;4.25;73.74
73501;BME280;61721;42.206;25.320;2023-12-14T02:39:12;98746.53;;;4.50;73.20
73501;BME280;61721;42.206;25.320;2023-12-14T02:41:41;98737.22;;;4.12;73.75
73501;BME280;61721;42.206;25.320;2023-12-14T02:44:08;98731.72;;;3.98;74.35
73501;BME280;61721;42.206;25.320;2023-12-14T02:46:36;98736.72;;;4.01;74.08
73501;BME280;61721;42.206;25.320;2023-12-14T02:49:03;98735.13;;;4.14;74.17
73501;BME280;61721;42.206;25.320;2023-12-14T02:51:31;98724.34;;;4.14;74.19
73501;BME280;61721;42.206;25.320;2023-12-14T02:53:59;98721.13;;;4.25;73.72
73501;BME280;61721;42.206;25.320;2023-12-14T02:56:26;98733.06;;;4.16;74.33
73501;BME280;61721;42.206;25.320;2023-12-14T02:58:55;98729.81;;;4.27;73.68
73501;BME280;61721;42.206;25.320;2023-12-14T03:01:22;98732.69;;;4.19;74.42
73501;BME280;61721;42.206;25.320;2023-12-14T03:03:49;98731.22;;;4.16;74.22
73501;BME280;61721;42.206;25.320;2023-12-14T03:06:17;98727.56;;;4.30;73.93
73501;BME280;61721;42.206;25.320;2023-12-14T03:08:44;98732.50;;;4.20;73.85
73501;BME280;61721;42.206;25.320;2023-12-14T03:11:21;98727.53;;;4.24;74.05
73501;BME280;61721;42.206;25.320;2023-12-14T03:13:49;98723.03;;;4.31;74.19
73501;BME280;61721;42.206;25.320;2023-12-14T03:16:17;98719.53;;;4.43;73.79
73501;BME280;61721;42.206;25.320;2023-12-14T03:18:45;98735.47;;;4.32;73.67
73501;BME280;61721;42.206;25.320;2023-12-14T03:21:15;98733.84;;;4.44;73.57
73501;BME280;61721;42.206;25.320;2023-12-14T03:23:42;98742.78;;;3.82;75.30
73501;BME280;61721;42.206;25.320;2023-12-14T03:26:10;98742.09;;;4.01;75.38
73501;BME280;61721;42.206;25.320;2023-12-14T03:28:37;98735.44;;;3.97;75.34
73501;BME280;61721;42.206;25.320;2023-12-14T03:31:05;98737.97;;;3.50;76.80
73501;BME280;61721;42.206;25.320;2023-12-14T03:33:34;98755.59;;;3.80;76.20
73501;BME280;61721;42.206;25.320;2023-12-14T03:36:02;98759.13;;;4.08;75.23
73501;BME280;61721;42.206;25.320;2023-12-14T03:38:30;98757.47;;;4.07;74.31
73501;BME280;61721;42.206;25.320;2023-12-14T03:40:57;98753.91;;;3.72;75.76
73501;BME280;61721;42.206;25.320;2023-12-14T03:43:25;98751.19;;;4.00;75.98
73501;BME280;61721;42.206;25.320;2023-12-14T03:45:52;98754.53;;;4.02;75.30
73501;BME280;61721;42.206;25.320;2023-12-14T03:48:19;98751.91;;;4.50;74.04
73501;BME280;61721;42.206;25.320;2023-12-14T03:50:48;98744.94;;;3.93;75.85
73501;BME280;61721;42.206;25.320;2023-12-14T03:53:16;98754.78;;;4.42;74.39
73501;BME280;61721;42.206;25.320;2023-12-14T03:55:44;98749.50;;;4.68;73.39
73501;BME280;61721;42.206;25.320;2023-12-14T03:58:11;98739.00;;;4.39;74.10
73501;BME280;61721;42.206;25.320;2023-12-14T04:00:39;98749.16;;;4.37;74.28
73501;BME280;61721;42.206;25.320;2023-12-14T04:03:06;98748.03;;;4.25;74.68
73501;BME280;61721;42.206;25.320;2023-12-14T04:05:35;98739.19;;;4.31;74.66
73501;BME280;61721;42.206;25.320;2023-12-14T04:08:06;98752.06;;;4.07;75.03
73501;BME280;61721;42.206;25.320;2023-12-14T04:10:33;98744.53;;;3.96;75.26
73501;BME280;61721;42.206;25.320;2023-12-14T04:13:00;98752.16;;;4.21;74.35
73501;BME280;61721;42.206;25.320;2023-12-14T04:15:28;98757.00;;;4.32;74.04
73501;BME280;61721;42.206;25.320;2023-12-14T04:17:55;98755.28;;;4.65;72.59
73501;BME280;61721;42.206;25.320;2023-12-14T04:20:23;98758.09;;;4.09;74.07
73501;BME280;61721;42.206;25.320;2023-12-14T04:22:51;98762.00;;;4.07;74.12
73501;BME280;61721;42.206;25.320;2023-12-14T04:25:19;98752.03;;;4.01;73.99
73501;BME280;61721;42.206;25.320;2023-12-14T04:27:47;98747.38;;;3.88;74.51
73501;BME280;61721;42.206;25.320;2023-12-14T04:30:14;98731.84;;;3.84;74.12
73501;BME280;61721;42.206;25.320;2023-12-14T04:32:42;98729.50;;;3.74;74.58
73501;BME280;61721;42.206;25.320;2023-12-14T04:35:09;98741.13;;;3.81;74.31
73501;BME280;61721;42.206;25.320;2023-12-14T04:37:37;98774.78;;;3.98;74.89
73501;BME280;61721;42.206;25.320;2023-12-14T04:40:05;98766.31;;;4.36;73.08
73501;BME280;61721;42.206;25.320;2023-12-14T04:42:35;98761.16;;;4.06;74.10
73501;BME280;61721;42.206;25.320;2023-12-14T04:45:03;98744.84;;;3.80;74.52
73501;BME280;61721;42.206;25.320;2023-12-14T04:47:30;98733.06;;;3.81;75.39
73501;BME280;61721;42.206;25.320;2023-12-14T04:49:58;98748.13;;;4.38;73.87
73501;BME280;61721;42.206;25.320;2023-12-14T04:52:25;98747.88;;;3.98;74.60
73501;BME280;61721;42.206;25.320;2023-12-14T04:54:53;98750.41;;;4.06;74.43
73501;BME280;61721;42.206;25.320;2023-12-14T04:57:20;98737.91;;;3.92;75.24
73501;BME280;61721;42.206;25.320;2023-12-14T04:59:49;98744.81;;;4.08;75.07
73501;BME280;61721;42.206;25.320;2023-12-14T05:02:17;98745.31;;;4.18;74.57
73501;BME280;61721;42.206;25.320;2023-12-14T05:04:44;98740.44;;;4.00;74.95
73501;BME280;61721;42.206;25.320;2023-12-14T05:07:12;98743.44;;;4.19;75.38
73501;BME280;61721;42.206;25.320;2023-12-14T05:09:41;98716.44;;;4.05;75.30
73501;BME280;61721;42.206;25.320;2023-12-14T05:12:08;98723.22;;;4.29;74.76
73501;BME280;61721;42.206;25.320;2023-12-14T05:14:38;98723.22;;;4.29;74.49
73501;BME280;61721;42.206;25.320;2023-12-14T05:17:07;98728.94;;;4.13;75.85
73501;BME280;61721;42.206;25.320;2023-12-14T05:19:34;98713.16;;;4.10;76.14
73501;BME280;61721;42.206;25.320;2023-12-14T05:22:01;98724.81;;;4.24;76.15
73501;BME280;61721;42.206;25.320;2023-12-14T05:24:29;98722.06;;;4.10;76.34
73501;BME280;61721;42.206;25.320;2023-12-14T05:26:56;98713.44;;;4.22;75.41
73501;BME280;61721;42.206;25.320;2023-12-14T05:29:24;98722.56;;;4.21;75.86
73501;BME280;61721;42.206;25.320;2023-12-14T05:31:51;98718.69;;;4.36;75.20
73501;BME280;61721;42.206;25.320;2023-12-14T05:34:20;98714.50;;;4.27;75.19
73501;BME280;61721;42.206;25.320;2023-12-14T05:36:48;98702.81;;;4.14;75.44
73501;BME280;61721;42.206;25.320;2023-12-14T05:39:15;98718.19;;;4.20;75.93
73501;BME280;61721;42.206;25.320;2023-12-14T05:41:42;98722.50;;;4.48;74.80
73501;BME280;61721;42.206;25.320;2023-12-14T05:44:10;98716.47;;;4.53;74.58
73501;BME280;61721;42.206;25.320;2023-12-14T05:46:37;98728.25;;;4.39;75.04
73501;BME280;61721;42.206;25.320;2023-12-14T05:49:04;98716.34;;;4.61;73.99
73501;BME280;61721;42.206;25.320;2023-12-14T05:51:34;98720.28;;;4.24;74.87
73501;BME280;61721;42.206;25.320;2023-12-14T05:54:02;98719.63;;;4.63;73.62
73501;BME280;61721;42.206;25.320;2023-12-14T05:56:30;98713.69;;;4.33;74.06
73501;BME280;61721;42.206;25.320;2023-12-14T05:58:57;98713.31;;;4.43;74.14
73501;BME280;61721;42.206;25.320;2023-12-14T06:01:24;98709.94;;;4.28;74.08
73501;BME280;61721;42.206;25.320;2023-12-14T06:03:52;98732.28;;;4.22;74.72
73501;BME280;61721;42.206;25.320;2023-12-14T06:06:19;98731.09;;;4.31;74.19
73501;BME280;61721;42.206;25.320;2023-12-14T06:08:48;98747.97;;;4.12;75.03
73501;BME280;61721;42.206;25.320;2023-12-14T06:11:16;98744.69;;;4.57;74.00
73501;BME280;61721;42.206;25.320;2023-12-14T06:13:43;98747.72;;;4.41;73.62
73501;BME280;61721;42.206;25.320;2023-12-14T06:16:11;98762.53;;;4.65;73.57
73501;BME280;61721;42.206;25.320;2023-12-14T06:18:39;98761.03;;;4.56;73.32
73501;BME280;61721;42.206;25.320;2023-12-14T06:21:11;98761.31;;;4.33;73.48
73501;BME280;61721;42.206;25.320;2023-12-14T06:23:38;98764.66;;;4.35;73.61
73501;BME280;61721;42.206;25.320;2023-12-14T06:26:07;98769.56;;;4.25;73.74
73501;BME280;61721;42.206;25.320;2023-12-14T06:28:35;98775.03;;;4.38;74.05
73501;BME280;61721;42.206;25.320;2023-12-14T06:31:02;98763.25;;;4.39;73.76
73501;BME280;61721;42.206;25.320;2023-12-14T06:33:31;98764.25;;;4.31;73.76
73501;BME280;61721;42.206;25.320;2023-12-14T06:35:58;98770.25;;;4.74;73.11
73501;BME280;61721;42.206;25.320;2023-12-14T06:38:29;98761.34;;;4.74;72.76
73501;BME280;61721;42.206;25.320;2023-12-14T06:40:57;98761.44;;;4.53;73.32
73501;BME280;61721;42.206;25.320;2023-12-14T06:43:26;98758.91;;;4.44;73.50
73501;BME280;61721;42.206;25.320;2023-12-14T06:45:53;98764.75;;;4.48;73.32
73501;BME280;61721;42.206;25.320;2023-12-14T06:48:20;98772.75;;;4.82;72.95
73501;BME280;61721;42.206;25.320;2023-12-14T06:50:48;98774.94;;;5.07;71.83
73501;BME280;61721;42.206;25.320;2023-12-14T06:53:15;98765.91;;;4.32;74.28
73501;BME280;61721;42.206;25.320;2023-12-14T06:55:43;98770.13;;;4.48;74.53
73501;BME280;61721;42.206;25.320;2023-12-14T06:58:10;98782.56;;;4.49;74.44
73501;BME280;61721;42.206;25.320;2023-12-14T07:00:39;98787.09;;;4.42;74.73
73501;BME280;61721;42.206;25.320;2023-12-14T07:03:07;98769.66;;;4.38;74.96
73501;BME280;61721;42.206;25.320;2023-12-14T07:05:34;98783.03;;;4.59;74.58
73501;BME280;61721;42.206;25.320;2023-12-14T07:08:02;98773.34;;;4.71;73.81
73501;BME280;61721;42.206;25.320;2023-12-14T07:10:29;98776.56;;;5.01;73.35
73501;BME280;61721;42.206;25.320;2023-12-14T07:12:56;98776.31;;;4.42;74.60
73501;BME280;61721;42.206;25.320;2023-12-14T07:15:24;98794.81;;;4.99;73.37
73501;BME280;61721;42.206;25.320;2023-12-14T07:17:53;98794.38;;;4.89;73.60
73501;BME280;61721;42.206;25.320;2023-12-14T07:20:21;98793.63;;;5.21;72.47
73501;BME280;61721;42.206;25.320;2023-12-14T07:22:48;98804.63;;;4.72;73.94
73501;BME280;61721;42.206;25.320;2023-12-14T07:25:15;98799.69;;;4.76;74.07
73501;BME280;61721;42.206;25.320;2023-12-14T07:27:43;98788.38;;;4.18;75.11
73501;BME280;61721;42.206;25.320;2023-12-14T07:30:12;98800.72;;;4.06;76.39
73501;BME280;61721;42.206;25.320;2023-12-14T07:32:40;98784.25;;;4.57;75.37
73501;BME280;61721;42.206;25.320;2023-12-14T07:35:09;98780.66;;;4.91;73.95
73501;BME280;61721;42.206;25.320;2023-12-14T07:37:37;98775.88;;;4.79;74.10
73501;BME280;61721;42.206;25.320;2023-12-14T07:40:05;98793.47;;;4.75;74.99
73501;BME280;61721;42.206;25.320;2023-12-14T07:42:33;98785.34;;;5.16;73.97
73501;BME280;61721;42.206;25.320;2023-12-14T07:45:01;98775.41;;;5.30;73.16
73501;BME280;61721;42.206;25.320;2023-12-14T07:47:28;98762.56;;;5.39;73.35
73501;BME280;61721;42.206;25.320;2023-12-14T07:49:56;98765.47;;;5.44;72.81
73501;BME280;61721;42.206;25.320;2023-12-14T07:52:25;98783.72;;;5.35;73.76
73501;BME280;61721;42.206;25.320;2023-12-14T07:54:53;98777.91;;;5.25;73.74
73501;BME280;61721;42.206;25.320;2023-12-14T07:57:20;98775.00;;;5.27;74.38
73501;BME280;61721;42.206;25.320;2023-12-14T07:59:49;98787.84;;;5.31;74.24
73501;BME280;61721;42.206;25.320;2023-12-14T08:02:17;98781.25;;;5.53;74.07
73501;BME280;61721;42.206;25.320;2023-12-14T08:04:45;98775.25;;;5.51;74.15
73501;BME280;61721;42.206;25.320;2023-12-14T08:07:13;98777.09;;;5.51;74.33
73501;BME280;61721;42.206;25.320;2023-12-14T08:09:42;98776.28;;;5.64;74.20
73501;BME280;61721;42.206;25.320;2023-12-14T08:12:09;98779.53;;;5.19;75.31
73501;BME280;61721;42.206;25.320;2023-12-14T08:14:37;98775.16;;;5.12;75.58
73501;BME280;61721;42.206;25.320;2023-12-14T08:17:09;98771.31;;;5.60;75.18
73501;BME280;61721;42.206;25.320;2023-12-14T08:19:36;98766.97;;;5.73;74.70
73501;BME280;61721;42.206;25.320;2023-12-14T08:22:04;98777.44;;;5.08;76.61
73501;BME280;61721;42.206;25.320;2023-12-14T08:24:31;98782.94;;;5.54;75.97
73501;BME280;61721;42.206;25.320;2023-12-14T08:27:00;98790.00;;;6.34;73.91
73501;BME280;61721;42.206;25.320;2023-12-14T08:29:27;98787.50;;;6.40;73.53
73501;BME280;61721;42.206;25.320;2023-12-14T08:31:55;98796.03;;;6.30;73.62
73501;BME280;61721;42.206;25.320;2023-12-14T08:34:24;98787.28;;;6.34;73.49
73501;BME280;61721;42.206;25.320;2023-12-14T08:36:52;98785.88;;;5.86;75.11
73501;BME280;61721;42.206;25.320;2023-12-14T08:39:19;98789.22;;;6.14;75.52
73501;BME280;61721;42.206;25.320;2023-12-14T08:41:47;98786.22;;;6.49;73.79
73501;BME280;61721;42.206;25.320;2023-12-14T08:44:15;98800.38;;;6.51;74.12
73501;BME280;61721;42.206;25.320;2023-12-14T08:46:44;98808.91;;;6.34;74.84
73501;BME280;61721;42.206;25.320;2023-12-14T08:49:12;98807.41;;;6.58;74.55
73501;BME280;61721;42.206;25.320;2023-12-14T08:51:41;98797.59;;;6.77;73.85
73501;BME280;61721;42.206;25.320;2023-12-14T08:54:09;98791.16;;;6.65;73.99
73501;BME280;61721;42.206;25.320;2023-12-14T08:56:36;98787.16;;;6.87;73.81
73501;BME280;61721;42.206;25.320;2023-12-14T08:59:03;98793.63;;;6.80;73.81
73501;BME280;61721;42.206;25.320;2023-12-14T09:01:32;98791.06;;;6.98;73.45
73501;BME280;61721;42.206;25.320;2023-12-14T09:04:00;98790.19;;;7.11;73.39
73501;BME280;61721;42.206;25.320;2023-12-14T09:06:27;98791.75;;;7.25;73.21
73501;BME280;61721;42.206;25.320;2023-12-14T09:08:55;98783.00;;;6.85;74.52
73501;BME280;61721;42.206;25.320;2023-12-14T09:11:22;98779.00;;;7.00;74.13
73501;BME280;61721;42.206;25.320;2023-12-14T09:13:50;98773.09;;;7.17;73.96
73501;BME280;61721;42.206;25.320;2023-12-14T09:16:18;98766.31;;;7.32;73.14
73501;BME280;61721;42.206;25.320;2023-12-14T09:18:46;98764.66;;;7.38;72.30
73501;BME280;61721;42.206;25.320;2023-12-14T09:21:14;98779.41;;;6.97;74.36
73501;BME280;61721;42.206;25.320;2023-12-14T09:23:41;98779.22;;;6.99;74.08
73501;BME280;61721;42.206;25.320;2023-12-14T09:26:09;98776.41;;;7.19;74.43
73501;BME280;61721;42.206;25.320;2023-12-14T09:28:36;98762.38;;;6.97;74.51
73501;BME280;61721;42.206;25.320;2023-12-14T09:31:04;98761.53;;;6.96;74.49
73501;BME280;61721;42.206;25.320;2023-12-14T09:33:31;98757.63;;;7.24;74.01
73501;BME280;61721;42.206;25.320;2023-12-14T09:36:00;98749.03;;;7.33;73.71
73501;BME280;61721;42.206;25.320;2023-12-14T09:38:27;98753.88;;;7.88;72.26
73501;BME280;61721;42.206;25.320;2023-12-14T09:40:55;98741.03;;;7.76;72.57
73501;BME280;61721;42.206;25.320;2023-12-14T09:43:22;98742.28;;;7.99;71.32
73501;BME280;61721;42.206;25.320;2023-12-14T09:45:51;98754.69;;;8.13;70.35
73501;BME280;61721;42.206;25.320;2023-12-14T09:48:19;98753.41;;;7.66;71.86
73501;BME280;61721;42.206;25.320;2023-12-14T09:50:47;98747.66;;;7.80;72.28
73501;BME280;61721;42.206;25.320;2023-12-14T09:53:17;98737.88;;;7.55;73.08
73501;BME280;61721;42.206;25.320;2023-12-14T09:55:45;98730.72;;;7.67;72.89
73501;BME280;61721;42.206;25.320;2023-12-14T09:58:13;98739.63;;;7.42;74.46
73501;BME280;61721;42.206;25.320;2023-12-14T10:00:40;98751.03;;;7.20;75.04
73501;BME280;61721;42.206;25.320;2023-12-14T10:03:21;98745.09;;;7.36;74.57
73501;BME280;61721;42.206;25.320;2023-12-14T10:05:49;98734.69;;;7.33;74.54
73501;BME280;61721;42.206;25.320;2023-12-14T10:08:22;98724.97;;;7.50;74.16
73501;BME280;61721;42.206;25.320;2023-12-14T10:10:50;98719.69;;;7.37;73.78
73501;BME280;61721;42.206;25.320;2023-12-14T10:13:19;98727.78;;;7.68;73.84
73501;BME280;61721;42.206;25.320;2023-12-14T10:15:48;98722.81;;;7.65;74.59
73501;BME280;61721;42.206;25.320;2023-12-14T10:18:22;98728.75;;;7.99;72.44
73501;BME280;61721;42.206;25.320;2023-12-14T10:20:50;98730.88;;;7.97;71.98
73501;BME280;61721;42.206;25.320;2023-12-14T10:23:18;98712.25;;;7.82;72.86
73501;BME280;61721;42.206;25.320;2023-12-14T10:25:48;98702.78;;;7.91;73.44
73501;BME280;61721;42.206;25.320;2023-12-14T10:28:16;98701.06;;;8.58;71.92
73501;BME280;61721;42.206;25.320;2023-12-14T10:30:44;98712.00;;;8.51;69.75
73501;BME280;61721;42.206;25.320;2023-12-14T10:33:11;98702.13;;;9.05;69.45
73501;BME280;61721;42.206;25.320;2023-12-14T10:35:41;98692.53;;;9.32;68.27
73501;BME280;61721;42.206;25.320;2023-12-14T10:38:11;98682.59;;;9.26;67.80
73501;BME280;61721;42.206;25.320;2023-12-14T10:40:39;98670.91;;;10.02;66.18
73501;BME280;61721;42.206;25.320;2023-12-14T10:43:12;98670.66;;;10.16;64.84
73501;BME280;61721;42.206;25.320;2023-12-14T10:45:43;98674.19;;;10.51;65.23
73501;BME280;61721;42.206;25.320;2023-12-14T10:48:11;98661.84;;;10.60;63.93
73501;BME280;61721;42.206;25.320;2023-12-14T10:50:42;98657.59;;;10.64;64.71
73501;BME280;61721;42.206;25.320;2023-12-14T10:53:10;98660.59;;;10.79;64.26
73501;BME280;61721;42.206;25.320;2023-12-14T10:55:41;98656.53;;;11.22;63.48
73501;BME280;61721;42.206;25.320;2023-12-14T10:58:11;98655.09;;;11.20;63.16
73501;BME280;61721;42.206;25.320;2023-12-14T11:00:59;98651.16;;;11.27;62.44
73501;BME280;61721;42.206;25.320;2023-12-14T11:03:30;98658.94;;;11.69;61.53
73501;BME280;61721;42.206;25.320;2023-12-14T11:06:00;98648.53;;;11.66;61.83
73501;BME280;61721;42.206;25.320;2023-12-14T11:08:27;98645.03;;;11.20;62.26
73501;BME280;61721;42.206;25.320;2023-12-14T11:11:04;98644.84;;;10.53;64.36
73501;BME280;61721;42.206;25.320;2023-12-14T11:13:39;98643.22;;;11.09;63.83
73501;BME280;61721;42.206;25.320;2023-12-14T11:16:08;98657.22;;;11.01;63.89
73501;BME280;61721;42.206;25.320;2023-12-14T11:18:35;98652.06;;;10.88;63.90
73501;BME280;61721;42.206;25.320;2023-12-14T11:21:03;98640.28;;;10.70;64.08
73501;BME280;61721;42.206;25.320;2023-12-14T11:23:33;98644.59;;;10.66;65.28
73501;BME280;61721;42.206;25.320;2023-12-14T11:26:02;98648.47;;;10.99;64.38
73501;BME280;61721;42.206;25.320;2023-12-14T11:28:34;98648.78;;;10.46;65.21
73501;BME280;61721;42.206;25.320;2023-12-14T11:31:04;98651.28;;;10.24;66.62
73501;BME280;61721;42.206;25.320;2023-12-14T11:33:33;98649.06;;;10.09;67.10
73501;BME280;61721;42.206;25.320;2023-12-14T11:36:02;98644.28;;;10.39;66.37
73501;BME280;61721;42.206;25.320;2023-12-14T11:38:30;98641.13;;;9.84;67.60
73501;BME280;61721;42.206;25.320;2023-12-14T11:40:58;98642.09;;;9.78;68.07
73501;BME280;61721;42.206;25.320;2023-12-14T11:43:26;98642.69;;;9.80;68.91
73501;BME280;61721;42.206;25.320;2023-12-14T11:45:54;98638.06;;;9.69;68.97
73501;BME280;61721;42.206;25.320;2023-12-14T11:48:23;98638.41;;;9.49;69.41
73501;BME280;61721;42.206;25.320;2023-12-14T11:50:51;98630.44;;;9.24;69.99
73501;BME280;61721;42.206;25.320;2023-12-14T11:53:18;98634.00;;;9.37;69.28
73501;BME280;61721;42.206;25.320;2023-12-14T11:55:46;98632.97;;;9.49;69.72
73501;BME280;61721;42.206;25.320;2023-12-14T11:58:14;98639.31;;;9.43;69.59
73501;BME280;61721;42.206;25.320;2023-12-14T12:00:43;98635.75;;;9.19;70.37
73501;BME280;61721;42.206;25.320;2023-12-14T12:03:13;98630.75;;;9.58;70.02
73501;BME280;61721;42.206;25.320;2023-12-14T12:05:43;98620.72;;;9.70;69.44
73501;BME280;61721;42.206;25.320;2023-12-14T12:08:12;98630.69;;;9.35;69.57
73501;BME280;61721;42.206;25.320;2023-12-14T12:10:42;98645.31;;;9.34;70.48
73501;BME280;61721;42.206;25.320;2023-12-14T12:13:13;98635.53;;;9.21;70.88
73501;BME280;61721;42.206;25.320;2023-12-14T12:15:40;98635.34;;;9.04;71.19
73501;BME280;61721;42.206;25.320;2023-12-14T12:18:09;98637.84;;;8.76;71.78
73501;BME280;61721;42.206;25.320;2023-12-14T12:20:37;98645.69;;;8.96;72.22
73501;BME280;61721;42.206;25.320;2023-12-14T12:23:06;98647.41;;;9.08;71.36
73501;BME280;61721;42.206;25.320;2023-12-14T12:25:35;98642.09;;;9.02;71.31
73501;BME280;61721;42.206;25.320;2023-12-14T12:28:03;98643.91;;;8.89;71.14
73501;BME280;61721;42.206;25.320;2023-12-14T12:30:30;98639.59;;;9.00;71.63
73501;BME280;61721;42.206;25.320;2023-12-14T12:32:58;98636.22;;;9.16;70.43
73501;BME280;61721;42.206;25.320;2023-12-14T12:35:26;98639.50;;;9.07;70.51
73501;BME280;61721;42.206;25.320;2023-12-14T12:37:56;98647.53;;;9.13;70.68
73501;BME280;61721;42.206;25.320;2023-12-14T12:40:25;98656.31;;;8.97;71.62
73501;BME280;61721;42.206;25.320;2023-12-14T12:42:53;98652.16;;;9.24;70.97
73501;BME280;61721;42.206;25.320;2023-12-14T12:45:21;98656.84;;;9.82;70.50
73501;BME280;61721;42.206;25.320;2023-12-14T12:47:51;98661.91;;;9.67;69.44
73501;BME280;61721;42.206;25.320;2023-12-14T12:50:18;98673.03;;;9.12;72.12
73501;BME280;61721;42.206;25.320;2023-12-14T12:52:46;98673.47;;;9.51;71.05
73501;BME280;61721;42.206;25.320;2023-12-14T12:55:17;98666.16;;;9.75;70.04
73501;BME280;61721;42.206;25.320;2023-12-14T12:57:46;98677.84;;;9.10;71.78
73501;BME280;61721;42.206;25.320;2023-12-14T13:00:15;98672.72;;;9.44;71.11
73501;BME280;61721;42.206;25.320;2023-12-14T13:02:44;98678.38;;;9.30;70.87
73501;BME280;61721;42.206;25.320;2023-12-14T13:05:11;98673.31;;;9.34;71.21